Time;durP1;ratioP1;P1;durP2;ratioP2;P2;SDS_P1;SDS_P2;PMS_P1;PMS_P2;Temp;Humidity;BMP_temperature;BMP_pressure;BME280_temperature;BME280_humidity;BME280_pressure;Samples;Min_cycle;Max_cycle;Signal;HPM_P1;HPM_P2
2023/01/15 00:02:15;;;;;;;6.72;1.63;;;;;;;11.51;58.45;99819.06;4965674;28;124850;-68
2023/01/15 00:04:42;;;;;;;6.75;1.20;;;;;;;11.47;58.52;99807.78;4962072;28;124036;-68
2023/01/15 00:07:09;;;;;;;5.60;1.15;;;;;;;11.44;58.62;99797.38;4968054;28;114281;-68
2023/01/15 00:09:36;;;;;;;3.65;1.17;;;;;;;11.41;58.41;99813.47;4966113;28;115184;-68
2023/01/15 00:12:04;;;;;;;6.35;1.40;;;;;;;11.39;58.47;99810.06;4969029;28;124831;-68
2023/01/15 00:14:31;;;;;;;4.30;1.10;;;;;;;11.38;58.56;99816.34;4966293;28;124788;-68
2023/01/15 00:16:58;;;;;;;6.22;1.15;;;;;;;11.35;58.65;99808.59;4965250;28;113202;-68
2023/01/15 00:19:25;;;;;;;6.40;1.23;;;;;;;11.35;58.77;99813.88;4965288;28;113134;-68
2023/01/15 00:21:52;;;;;;;2.92;0.75;;;;;;;11.34;58.55;99817.50;4967244;28;123946;-68
2023/01/15 00:29:53;;;;;;;8.48;1.30;;;;;;;11.30;58.37;99811.53;4967502;28;115708;-68
2023/01/15 00:32:20;;;;;;;8.65;1.60;;;;;;;11.28;58.26;99823.19;4949701;28;123106;-68
2023/01/15 00:34:47;;;;;;;7.40;1.25;;;;;;;11.28;58.07;99818.75;4944336;28;125685;-68
2023/01/15 00:37:14;;;;;;;7.85;1.65;;;;;;;11.27;58.15;99805.59;4962233;28;114161;-68
2023/01/15 00:39:42;;;;;;;5.00;1.20;;;;;;;11.27;57.95;99810.88;4966402;28;114167;-68
2023/01/15 00:42:10;;;;;;;8.38;1.23;;;;;;;11.24;57.96;99805.78;4967423;28;123965;-67
2023/01/15 00:44:38;;;;;;;7.03;1.15;;;;;;;11.25;57.77;99802.19;4967553;28;124313;-68
2023/01/15 00:47:07;;;;;;;7.78;1.30;;;;;;;11.25;57.93;99805.69;4949991;28;115166;-68
2023/01/15 00:49:35;;;;;;;6.57;1.25;;;;;;;11.25;57.66;99804.84;4952648;28;115093;-68
2023/01/15 00:52:02;;;;;;;6.53;1.10;;;;;;;11.24;57.99;99805.78;4965642;28;124505;-67
2023/01/15 00:54:29;;;;;;;6.13;1.15;;;;;;;11.23;57.88;99820.00;4959101;28;123723;-68
2023/01/15 00:56:57;;;;;;;8.45;1.30;;;;;;;11.22;57.79;99818.28;4930489;28;114126;-68
2023/01/15 00:59:24;;;;;;;5.95;1.15;;;;;;;11.20;57.89;99822.81;4958003;28;114640;-68
2023/01/15 01:01:52;;;;;;;8.05;1.38;;;;;;;11.19;57.86;99823.75;4942936;28;125069;-68
2023/01/15 01:04:19;;;;;;;6.35;1.40;;;;;;;11.17;58.15;99815.06;4963890;28;123718;-68
2023/01/15 01:06:46;;;;;;;6.07;1.60;;;;;;;11.17;58.05;99820.38;4957832;28;113831;-69
2023/01/15 01:09:14;;;;;;;6.97;1.33;;;;;;;11.17;58.26;99830.97;4966832;28;115670;-68
2023/01/15 01:11:42;;;;;;;7.07;1.30;;;;;;;11.16;58.24;99829.28;4963425;28;122888;-68
2023/01/15 01:14:11;;;;;;;6.43;1.42;;;;;;;11.15;58.31;99832.88;4965704;28;124006;-68
2023/01/15 01:16:39;;;;;;;5.95;1.25;;;;;;;11.14;58.42;99825.88;4961765;28;115410;-68
2023/01/15 01:19:16;;;;;;;6.15;1.42;;;;;;;11.13;58.35;99829.47;4965070;28;116407;-68
2023/01/15 01:21:44;;;;;;;6.20;1.25;;;;;;;11.13;58.36;99829.47;4936279;28;122972;-68
2023/01/15 01:24:15;;;;;;;7.85;1.60;;;;;;;11.12;58.39;99830.44;4965751;28;124878;-68
2023/01/15 01:26:44;;;;;;;5.57;1.50;;;;;;;11.09;58.02;99824.38;4964575;28;113146;-68
2023/01/15 01:29:12;;;;;;;4.45;1.30;;;;;;;11.08;58.10;99838.56;4967139;28;114481;-68
2023/01/15 01:31:40;;;;;;;6.55;1.33;;;;;;;11.08;58.01;99817.38;4965575;28;123915;-68
2023/01/15 01:34:08;;;;;;;6.45;1.30;;;;;;;11.05;58.13;99830.78;4965537;28;124875;-68
2023/01/15 01:36:37;;;;;;;7.15;1.52;;;;;;;11.03;58.05;99824.75;4961400;28;114697;-68
2023/01/15 01:39:06;;;;;;;8.35;1.42;;;;;;;11.01;57.80;99818.69;4967732;28;113846;-68
2023/01/15 01:41:33;;;;;;;8.57;1.20;;;;;;;11.01;57.84;99816.03;4965496;28;124619;-68
2023/01/15 01:44:05;;;;;;;6.95;1.40;;;;;;;11.00;57.52;99814.38;4962579;28;124422;-67
2023/01/15 01:46:34;;;;;;;5.68;1.23;;;;;;;10.98;57.67;99818.03;4960985;28;113692;-67
2023/01/15 01:49:07;;;;;;;8.30;1.30;;;;;;;10.97;57.69;99825.16;4964362;28;115397;-68
2023/01/15 01:51:46;;;;;;;7.88;1.20;;;;;;;10.95;57.55;99827.03;4961717;28;124057;-68
2023/01/15 01:54:18;;;;;;;5.63;0.95;;;;;;;10.93;57.43;99823.63;4964982;28;124731;-68
2023/01/15 01:56:48;;;;;;;5.93;1.38;;;;;;;10.91;57.70;99830.84;4947590;28;115340;-68
2023/01/15 01:59:18;;;;;;;6.13;1.35;;;;;;;10.90;57.60;99839.72;4964406;28;114232;-68
2023/01/15 02:01:47;;;;;;;9.63;1.60;;;;;;;10.89;57.75;99822.13;4963549;28;124502;-68
2023/01/15 02:04:17;;;;;;;8.00;1.48;;;;;;;10.89;57.52;99822.13;4963849;28;124150;-69
2023/01/15 02:06:44;;;;;;;6.20;1.40;;;;;;;10.89;57.42;99822.13;4964059;28;116509;-68
2023/01/15 02:09:12;;;;;;;4.18;0.95;;;;;;;10.88;57.61;99815.13;4963781;28;117154;-68
2023/01/15 02:11:39;;;;;;;4.93;1.27;;;;;;;10.85;57.56;99815.31;4965762;28;125209;-68
2023/01/15 02:14:19;;;;;;;4.68;1.33;;;;;;;10.85;57.69;99825.91;4966401;28;124131;-68
2023/01/15 02:16:57;;;;;;;6.60;1.45;;;;;;;10.85;57.50;99831.19;4964044;28;115205;-68
2023/01/15 02:19:53;;;;;;;7.25;1.40;;;;;;;10.83;57.48;99830.44;4953405;28;115190;-67
2023/01/15 02:22:42;;;;;;;4.00;1.00;;;;;;;10.81;57.36;99827.03;4964061;28;126079;-68
2023/01/15 02:25:41;;;;;;;9.00;1.60;;;;;;;10.78;57.59;99829.91;4963056;28;125052;-68
2023/01/15 02:28:23;;;;;;;5.70;1.10;;;;;;;10.78;57.60;99824.59;4947267;28;114779;-68
2023/01/15 02:31:04;;;;;;;4.82;1.00;;;;;;;10.77;57.35;99820.25;4966249;28;114334;-67
2023/01/15 02:33:37;;;;;;;4.88;1.38;;;;;;;10.76;57.42;99822.03;4947807;28;124742;-68
2023/01/15 02:36:10;;;;;;;;;;;;;;;10.75;57.55;99825.63;4963785;28;124481;-68
2023/01/15 02:38:45;;;;;;;6.07;1.25;;;;;;;10.75;57.70;99825.63;4977141;28;115002;-67
2023/01/15 02:41:17;;;;;;;5.85;1.23;;;;;;;10.76;57.21;99826.50;4966213;28;114993;-68
2023/01/15 02:43:52;;;;;;;6.80;0.95;;;;;;;10.75;57.21;99827.44;4962657;28;125115;-68
2023/01/15 02:46:28;;;;;;;8.35;1.52;;;;;;;10.75;57.37;99814.19;4964546;28;124827;-67
2023/01/15 02:48:58;;;;;;;6.88;1.33;;;;;;;10.73;57.29;99808.13;4962976;28;115050;-68
2023/01/15 02:51:39;;;;;;;6.75;1.23;;;;;;;10.73;57.21;99811.63;4965221;28;114719;-67
2023/01/15 02:54:13;;;;;;;4.82;1.42;;;;;;;10.74;57.13;99815.13;4963030;28;125083;-67
2023/01/15 02:56:45;;;;;;;7.75;1.25;;;;;;;10.73;57.15;99800.19;4944632;28;124809;-67
2023/01/15 02:59:20;;;;;;;4.75;1.30;;;;;;;10.71;56.86;99787.88;4965369;28;116240;-68
2023/01/15 03:01:59;;;;;;;8.15;1.20;;;;;;;10.70;57.03;99794.16;4944843;28;115682;-68
2023/01/15 03:04:40;;;;;;;5.57;1.02;;;;;;;10.68;56.88;99788.09;4948849;28;124853;-67
2023/01/15 03:07:26;;;;;;;6.18;1.25;;;;;;;10.68;57.08;99798.69;4948706;28;123685;-67
2023/01/15 03:09:56;;;;;;;5.93;1.17;;;;;;;10.66;57.00;99790.00;4965732;28;114384;-68
2023/01/15 03:12:33;;;;;;;8.43;1.60;;;;;;;10.64;56.95;99799.84;4966835;28;114272;-67
2023/01/15 03:16:33;;;;;;;7.22;1.50;;;;;;;10.62;57.14;99799.06;4968599;28;124764;-67
2023/01/15 03:18:12;;;;;;;5.68;0.95;;;;;;;10.59;57.10;99801.91;4966242;28;96809;-68
2023/01/15 03:20:49;;;;;;;6.10;1.40;;;;;;;10.59;57.09;99804.56;4939084;28;113732;-67
2023/01/15 03:23:22;;;;;;;8.25;1.65;;;;;;;10.58;57.11;99800.19;4972358;28;115887;-68
2023/01/15 03:25:50;;;;;;;8.05;1.45;;;;;;;10.58;56.85;99797.53;4967563;28;124295;-68
2023/01/15 03:28:24;;;;;;;6.32;1.27;;;;;;;10.56;57.05;99799.44;4950273;28;124888;-68
2023/01/15 03:30:52;;;;;;;5.50;1.00;;;;;;;10.56;57.15;99799.44;4966427;28;115198;-68
2023/01/15 03:33:19;;;;;;;8.30;1.25;;;;;;;10.56;57.03;99785.34;4949759;28;115083;-68
2023/01/15 03:35:51;;;;;;;8.95;1.55;;;;;;;10.56;57.03;99788.84;4967322;28;125541;-67
2023/01/15 03:38:40;;;;;;;7.30;1.40;;;;;;;10.57;56.81;99785.28;4963944;28;123326;-68
2023/01/15 03:41:38;;;;;;;;;;;;;;;10.55;57.06;99787.16;4968646;28;113721;-67
2023/01/15 03:44:22;;;;;;;7.88;1.45;;;;;;;10.54;57.13;99774.84;4977937;28;113183;-67
2023/01/15 03:47:20;;;;;;;8.38;1.30;;;;;;;10.51;57.19;99781.22;4959202;28;124072;-67
2023/01/15 03:50:16;;;;;;;5.43;1.33;;;;;;;10.50;56.95;99784.78;4963846;28;123144;-67
2023/01/15 03:53:16;;;;;;;10.65;1.42;;;;;;;10.48;56.92;99791.97;4972637;28;117480;-67
2023/01/15 03:56:07;;;;;;;8.40;2.03;;;;;;;10.48;56.85;99796.44;4948141;28;114084;-67
2023/01/15 03:58:48;;;;;;;8.18;1.50;;;;;;;10.47;56.91;99800.00;4953559;28;123197;-67
2023/01/15 04:01:26;;;;;;;6.68;1.35;;;;;;;10.46;56.65;99799.16;4961113;28;124972;-66
2023/01/15 04:03:55;;;;;;;8.55;1.60;;;;;;;10.45;56.80;99791.31;4974502;28;114190;-67
2023/01/15 04:06:28;;;;;;;6.68;1.38;;;;;;;10.46;56.89;99793.03;4967633;28;114496;-68
2023/01/15 04:08:57;;;;;;;7.55;1.17;;;;;;;10.44;57.01;99794.91;4964902;28;123641;-67
2023/01/15 04:11:26;;;;;;;5.25;1.17;;;;;;;10.44;56.78;99798.41;4962723;28;125402;-67
2023/01/15 04:13:59;;;;;;;10.80;1.77;;;;;;;10.44;56.84;99800.22;4961572;28;114774;-67
2023/01/15 04:16:59;;;;;;;8.50;1.42;;;;;;;10.44;56.71;99786.97;4958265;28;114290;-67
2023/01/15 04:19:26;;;;;;;8.45;1.35;;;;;;;10.43;56.63;99788.75;4968224;28;124063;-68
2023/01/15 04:22:03;;;;;;;6.28;1.73;;;;;;;10.43;56.76;99793.19;4963578;28;124247;-67
2023/01/15 04:24:30;;;;;;;4.28;1.65;;;;;;;10.42;56.87;99788.88;4965763;28;114411;-68
2023/01/15 04:26:57;;;;;;;8.88;1.27;;;;;;;10.42;56.55;99794.16;4961621;28;113047;-67
2023/01/15 04:29:25;;;;;;;8.70;1.40;;;;;;;10.41;56.50;99789.78;4966395;28;124041;-67
2023/01/15 04:31:56;;;;;;;8.20;1.80;;;;;;;10.40;56.29;99798.69;4963964;28;123803;-68
2023/01/15 04:34:25;;;;;;;5.97;1.23;;;;;;;10.38;56.50;99797.91;4953555;28;113918;-68
2023/01/15 04:36:53;;;;;;;6.85;1.33;;;;;;;10.37;56.37;99789.13;4968771;28;113933;-68
2023/01/15 04:39:21;;;;;;;9.77;1.60;;;;;;;10.36;56.49;99781.28;4967827;28;123796;-68
2023/01/15 04:44:35;;;;;;;7.15;1.27;;;;;;;10.32;56.21;99786.78;4959126;28;116025;-68
2023/01/15 04:47:02;;;;;;;7.05;1.48;;;;;;;10.30;56.31;99788.66;4966887;28;115602;-68
2023/01/15 04:49:29;;;;;;;11.30;1.55;;;;;;;10.29;56.31;99791.38;4963990;28;124010;-68
2023/01/15 04:51:56;;;;;;;8.32;1.25;;;;;;;10.27;56.31;99794.09;4964250;28;124256;-68
2023/01/15 04:54:23;;;;;;;8.05;1.75;;;;;;;10.27;56.14;99794.09;4965277;28;114646;-68
2023/01/15 04:56:52;;;;;;;11.60;1.40;;;;;;;10.26;56.24;99802.97;4963397;28;116097;-68
2023/01/15 04:59:25;;;;;;;6.05;1.10;;;;;;;10.25;56.18;99798.66;4962709;28;124025;-67
2023/01/15 05:01:52;;;;;;;9.25;1.25;;;;;;;10.25;56.07;99814.53;4968682;28;123848;-68
2023/01/15 05:04:32;;;;;;;8.40;1.70;;;;;;;10.24;55.84;99804.88;4962166;28;114003;-68
2023/01/15 05:07:01;;;;;;;8.88;1.50;;;;;;;10.24;56.29;99798.72;4959868;28;113901;-68
2023/01/15 05:09:28;;;;;;;7.13;1.55;;;;;;;10.24;56.23;99815.44;4963663;28;123241;-68
2023/01/15 05:11:56;;;;;;;6.82;1.52;;;;;;;10.24;56.05;99814.59;4967572;28;124405;-67
2023/01/15 05:14:23;;;;;;;5.78;1.20;;;;;;;10.25;56.10;99806.59;4962544;28;114754;-68
2023/01/15 05:16:50;;;;;;;8.40;1.40;;;;;;;10.26;56.17;99813.56;4965841;28;114317;-68
2023/01/15 05:19:17;;;;;;;9.27;1.83;;;;;;;10.26;56.09;99802.97;4958897;28;124111;-68
2023/01/15 05:21:44;;;;;;;5.78;1.42;;;;;;;10.25;55.88;99801.28;4965783;28;124264;-68
2023/01/15 05:24:16;;;;;;;9.15;1.48;;;;;;;10.24;55.96;99802.22;4963900;28;113962;-68
2023/01/15 05:26:44;;;;;;;10.02;1.50;;;;;;;10.24;56.10;99794.28;4966459;28;114338;-68
2023/01/15 05:29:12;;;;;;;6.97;1.23;;;;;;;10.22;55.95;99796.16;4965102;28;124252;-68
2023/01/15 05:31:40;;;;;;;7.05;1.17;;;;;;;10.23;55.93;99797.88;4952549;28;124654;-68
2023/01/15 05:34:08;;;;;;;5.57;1.63;;;;;;;10.24;56.05;99799.56;4963709;28;115327;-68
2023/01/15 05:36:36;;;;;;;6.78;1.65;;;;;;;10.24;56.05;99794.28;4966838;28;115818;-68
2023/01/15 05:39:04;;;;;;;10.38;1.35;;;;;;;10.23;56.10;99792.59;4967142;28;124422;-68
2023/01/15 05:41:49;;;;;;;9.88;1.75;;;;;;;10.23;55.82;99808.47;4965571;28;124401;-68
2023/01/15 05:44:16;;;;;;;;;;;;;;;10.21;56.11;99794.50;4962795;28;115894;-68
2023/01/15 05:46:44;;;;;;;9.60;1.30;;;;;;;10.21;56.00;99778.63;4960370;28;113940;-68
2023/01/15 05:49:14;;;;;;;7.90;1.50;;;;;;;10.20;56.05;99782.19;4947262;28;123779;-68
2023/01/15 05:51:41;;;;;;;8.57;1.73;;;;;;;10.18;55.91;99792.00;4962545;28;123657;-69
2023/01/15 05:54:14;;;;;;;7.10;1.30;;;;;;;10.18;55.78;99785.88;4946310;28;114687;-70
2023/01/15 05:56:42;;;;;;;7.18;1.20;;;;;;;10.19;56.14;99796.38;4976470;28;113628;-69
2023/01/15 05:59:09;;;;;;;8.63;1.30;;;;;;;10.18;55.98;99784.06;4965255;28;125214;-70
2023/01/15 06:01:36;;;;;;;8.55;1.60;;;;;;;10.18;56.03;99789.38;4966718;28;126285;-69
2023/01/15 06:04:05;;;;;;;5.90;1.48;;;;;;;10.16;55.96;99791.25;4963360;28;114451;-69
2023/01/15 06:06:34;;;;;;;6.38;1.50;;;;;;;10.17;55.66;99792.97;4961049;28;113915;-69
2023/01/15 06:09:03;;;;;;;10.85;1.30;;;;;;;10.16;55.73;99790.41;4966525;28;124676;-69
2023/01/15 06:11:30;;;;;;;8.15;1.50;;;;;;;10.16;55.92;99780.69;4948480;28;123872;-69
2023/01/15 06:13:58;;;;;;;7.93;1.38;;;;;;;10.14;55.89;99778.13;4965918;28;114425;-69
2023/01/15 06:16:25;;;;;;;6.50;1.20;;;;;;;10.15;55.82;99794.84;4966733;28;113935;-69
2023/01/15 06:18:52;;;;;;;8.82;1.42;;;;;;;10.14;55.60;99793.16;4968072;28;124552;-69
2023/01/15 06:21:20;;;;;;;6.07;1.23;;;;;;;10.14;56.00;99785.22;4963540;28;124886;-68
2023/01/15 06:23:47;;;;;;;5.68;1.30;;;;;;;10.15;55.90;99805.41;4966315;28;115737;-68
2023/01/15 06:26:16;;;;;;;7.72;1.40;;;;;;;10.13;55.77;99807.31;4960313;28;115432;-68
2023/01/15 06:28:45;;;;;;;8.20;1.55;;;;;;;10.13;55.77;99816.13;4964636;28;124901;-68
2023/01/15 06:31:15;;;;;;;8.23;1.40;;;;;;;10.13;55.84;99807.31;4963534;28;124252;-69
2023/01/15 06:33:42;;;;;;;6.35;1.63;;;;;;;10.12;56.27;99813.56;4967467;28;114515;-69
2023/01/15 06:36:12;;;;;;;6.32;1.50;;;;;;;10.10;56.16;99810.16;4965681;28;114134;-69
2023/01/15 06:38:40;;;;;;;5.22;1.30;;;;;;;10.05;56.08;99806.94;4966544;28;123221;-69
2023/01/15 06:49:32;;;;;;;7.25;1.52;;;;;;;9.93;56.88;99817.28;4961018;28;124166;-69
2023/01/15 06:52:00;;;;;;;5.90;1.80;;;;;;;9.93;56.70;99827.88;4964477;28;123408;-69
2023/01/15 06:54:27;;;;;;;5.90;1.40;;;;;;;9.93;56.99;99827.88;4963996;28;114606;-69
2023/01/15 06:56:55;;;;;;;10.60;1.70;;;;;;;9.94;57.14;99824.31;4954569;28;114022;-69
2023/01/15 06:59:22;;;;;;;6.75;1.63;;;;;;;9.95;56.92;99814.56;4963295;28;123954;-69
2023/01/15 07:01:49;;;;;;;6.32;1.30;;;;;;;9.96;56.84;99810.13;4969605;28;124344;-69
2023/01/15 07:04:16;;;;;;;6.68;1.30;;;;;;;9.94;56.99;99813.72;4968016;28;113773;-69
2023/01/15 07:06:43;;;;;;;7.78;1.60;;;;;;;9.97;56.74;99822.41;4971047;28;114115;-69
2023/01/15 07:09:11;;;;;;;5.68;1.00;;;;;;;9.93;56.91;99812.00;4970815;28;124003;-69
2023/01/15 07:11:48;;;;;;;6.65;1.20;;;;;;;9.91;56.79;99837.69;4959385;28;123868;-68
2023/01/15 07:14:21;;;;;;;4.35;1.10;;;;;;;9.90;56.72;99832.47;4963408;28;115254;-69
2023/01/15 07:16:49;;;;;;;7.75;1.10;;;;;;;9.87;56.79;99844.09;4962621;28;115035;-69
2023/01/15 07:19:17;;;;;;;2.55;0.90;;;;;;;9.86;56.78;99842.38;4967135;28;124365;-68
2023/01/15 07:21:45;;;;;;;6.53;1.25;;;;;;;9.85;56.69;99839.81;4967628;28;123815;-70
2023/01/15 07:24:13;;;;;;;2.33;0.85;;;;;;;9.83;56.79;99842.59;4969215;28;113996;-69
2023/01/15 07:26:40;;;;;;;5.78;1.38;;;;;;;9.84;56.82;99843.44;4964661;28;113038;-69
2023/01/15 07:29:08;;;;;;;3.92;1.08;;;;;;;9.83;56.69;99841.72;4965431;28;125145;-69
2023/01/15 07:31:35;;;;;;;7.85;1.15;;;;;;;9.81;56.66;99844.44;4967410;28;124392;-69
2023/01/15 07:34:03;;;;;;;8.02;1.15;;;;;;;9.82;56.58;99850.59;4959043;28;114766;-69
2023/01/15 07:36:30;;;;;;;4.65;1.02;;;;;;;9.78;56.63;99849.94;4954156;28;114505;-69
2023/01/15 07:38:58;;;;;;;7.55;1.75;;;;;;;9.78;56.57;99849.09;4968330;28;121980;-69
2023/01/15 07:49:47;;;;;;;2.92;1.25;;;;;;;9.72;56.93;99845.84;4961692;28;123834;-69
2023/01/15 07:52:19;;;;;;;3.05;1.10;;;;;;;9.71;56.80;99844.13;4963076;28;124633;-69
2023/01/15 07:54:48;;;;;;;5.60;1.00;;;;;;;9.73;56.91;99851.97;4961813;28;114242;-69
2023/01/15 07:57:17;;;;;;;7.35;1.38;;;;;;;9.72;56.73;99843.19;4963294;28;113990;-69
2023/01/15 07:59:44;;;;;;;5.97;1.10;;;;;;;9.72;56.73;99845.00;4960934;28;124228;-69
2023/01/15 08:02:12;;;;;;;2.60;1.15;;;;;;;9.72;56.80;99847.66;4967994;28;123882;-68
2023/01/15 08:04:39;;;;;;;7.53;1.20;;;;;;;9.75;56.71;99860.66;4966586;28;115723;-69
2023/01/15 08:07:07;;;;;;;4.47;0.93;;;;;;;9.75;56.71;99855.38;4966004;28;113900;-69
2023/01/15 08:09:34;;;;;;;3.60;1.10;;;;;;;9.75;56.79;99855.38;4965038;28;124067;-68
2023/01/15 08:17:35;;;;;;;3.72;1.17;;;;;;;9.77;56.61;99863.22;4964878;28;114458;-69
2023/01/15 08:20:17;;;;;;;3.97;0.98;;;;;;;9.76;56.61;99862.38;4954687;28;126220;-69
2023/01/15 08:22:45;;;;;;;5.15;1.40;;;;;;;9.76;56.82;99862.38;4965610;28;123695;-68
2023/01/15 08:25:16;;;;;;;3.20;1.45;;;;;;;9.76;56.29;99875.59;4968091;28;114172;-69
2023/01/15 08:27:43;;;;;;;2.35;0.80;;;;;;;9.74;56.34;99870.41;4963774;28;114426;-71
2023/01/15 08:30:13;;;;;;;2.58;1.00;;;;;;;9.74;56.34;99864.28;4950422;28;123908;-69
2023/01/15 08:32:40;;;;;;;7.40;1.15;;;;;;;9.72;56.12;99860.88;4961218;28;124483;-69
2023/01/15 08:35:08;;;;;;;3.45;1.50;;;;;;;9.72;56.44;99871.44;4966818;28;114325;-69
2023/01/15 08:37:35;;;;;;;2.83;1.17;;;;;;;9.71;56.49;99865.28;4967669;28;113841;-68
2023/01/15 08:40:03;;;;;;;5.63;1.55;;;;;;;9.70;56.28;99873.28;4966933;28;124356;-69
2023/01/15 08:42:30;;;;;;;4.75;1.50;;;;;;;9.68;56.22;99875.19;4956471;28;123889;-68
2023/01/15 08:44:57;;;;;;;3.05;1.25;;;;;;;9.68;56.13;99869.88;4966845;28;114278;-69
2023/01/15 08:47:24;;;;;;;4.05;0.98;;;;;;;9.67;56.09;99869.03;4965782;28;113528;-69
2023/01/15 08:49:52;;;;;;;4.53;1.10;;;;;;;9.67;56.12;99865.56;4965763;28;124621;-69
2023/01/15 08:52:19;;;;;;;5.75;1.13;;;;;;;9.66;56.23;99861.19;4966383;28;123801;-68
2023/01/15 08:54:46;;;;;;;1.90;0.82;;;;;;;9.66;56.11;99861.19;4951646;28;115744;-69
2023/01/15 08:57:13;;;;;;;5.40;0.90;;;;;;;9.66;56.21;99861.19;4947546;28;114001;-69
2023/01/15 08:59:42;;;;;;;2.15;0.90;;;;;;;9.65;56.08;99864.78;4948745;28;122939;-69
2023/01/15 09:02:13;;;;;;;3.22;0.68;;;;;;;9.64;56.08;99852.50;4954406;28;124426;-72
2023/01/15 09:04:40;;;;;;;2.30;0.75;;;;;;;9.63;56.28;99851.66;4933064;28;114532;-69
2023/01/15 09:07:07;;;;;;;3.22;0.90;;;;;;;9.63;56.07;99856.09;4956523;28;113673;-69
2023/01/15 09:09:34;;;;;;;3.22;1.00;;;;;;;9.63;56.19;99853.47;4954044;28;124160;-69
2023/01/15 09:12:01;;;;;;;5.32;0.77;;;;;;;9.62;56.23;99854.38;4949538;28;122773;-69
2023/01/15 09:14:28;;;;;;;2.35;0.93;;;;;;;9.62;56.19;99864.94;4932798;28;115137;-69
2023/01/15 09:17:16;;;;;;;4.90;1.00;;;;;;;9.62;56.21;99865.81;4949753;28;114023;-67
2023/01/15 09:19:43;;;;;;;4.22;0.77;;;;;;;9.64;56.17;99857.78;4944911;28;124184;-67
2023/01/15 09:22:10;;;;;;;3.42;0.80;;;;;;;9.64;56.25;99857.78;4948748;28;123835;-70
2023/01/15 09:24:37;;;;;;;2.03;0.90;;;;;;;9.65;55.98;99862.16;4951061;28;114389;-69
2023/01/15 09:27:04;;;;;;;4.53;1.10;;;;;;;9.66;56.00;99850.63;4949941;28;114385;-70
2023/01/15 09:29:31;;;;;;;5.10;1.05;;;;;;;9.69;55.99;99871.59;4958898;28;123923;-69
2023/01/15 09:31:59;;;;;;;3.55;0.63;;;;;;;9.71;56.21;99864.44;4949531;28;123748;-69
2023/01/15 09:34:26;;;;;;;4.97;1.00;;;;;;;9.72;56.24;99859.06;4960470;28;114190;-69
2023/01/15 09:36:53;;;;;;;4.38;0.90;;;;;;;9.75;56.02;99873.88;4970691;28;113122;-69
2023/01/15 09:39:20;;;;;;;5.55;1.00;;;;;;;9.77;56.00;99884.38;4959716;28;123902;-69
2023/01/15 09:42:09;;;;;;;3.25;0.90;;;;;;;9.79;56.07;99878.06;4968070;28;124113;-69
2023/01/15 09:44:50;;;;;;;3.90;1.02;;;;;;;9.81;56.15;99876.19;4956711;28;114930;-69
2023/01/15 09:47:29;;;;;;;2.72;0.90;;;;;;;9.83;56.22;99869.03;4961799;28;114623;-69
2023/01/15 09:50:18;;;;;;;3.78;1.10;;;;;;;9.87;56.03;99854.69;4956704;28;124404;-69
2023/01/15 09:52:48;;;;;;;3.70;0.95;;;;;;;9.92;56.29;99857.03;4949488;28;123026;-69
2023/01/15 09:55:31;;;;;;;3.20;1.40;;;;;;;9.98;56.27;99861.13;4948603;28;114315;-69
2023/01/15 09:58:03;;;;;;;3.92;1.17;;;;;;;10.03;55.90;99859.06;4950438;28;113855;-69
2023/01/15 10:00:38;;;;;;;4.63;0.98;;;;;;;10.08;56.25;99857.03;4949121;28;123685;-69
2023/01/15 10:03:21;;;;;;;7.03;1.33;;;;;;;10.12;55.94;99863.81;4926986;28;123545;-69
2023/01/15 10:06:06;;;;;;;2.70;1.10;;;;;;;10.14;55.89;99880.47;4952855;28;114096;-70
2023/01/15 10:08:39;;;;;;;5.28;1.10;;;;;;;10.14;55.76;99867.22;4953970;28;115252;-69
2023/01/15 10:11:13;;;;;;;4.43;1.00;;;;;;;10.14;55.74;99875.16;4968501;28;123770;-69
2023/01/15 10:14:00;;;;;;;3.67;1.10;;;;;;;10.17;55.91;99867.06;4962303;28;124225;-69
2023/01/15 10:16:32;;;;;;;2.50;0.80;;;;;;;10.19;56.00;99896.94;4964009;28;114687;-69
2023/01/15 10:19:01;;;;;;;3.47;1.15;;;;;;;10.22;55.91;99878.22;4964889;28;113972;-69
2023/01/15 10:21:50;;;;;;;4.70;1.20;;;;;;;10.27;55.97;99892.03;4966970;28;124184;-70
2023/01/15 10:24:35;;;;;;;7.30;1.23;;;;;;;10.33;55.86;99875.81;4963393;28;124644;-69
2023/01/15 10:27:23;;;;;;;5.38;1.10;;;;;;;10.38;55.92;99874.69;4949069;28;114603;-69
2023/01/15 10:30:14;;;;;;;4.70;1.00;;;;;;;10.46;55.86;99883.03;4970731;28;117396;-69
2023/01/15 10:32:53;;;;;;;5.97;1.02;;;;;;;10.50;55.90;99884.53;4966746;28;124710;-69
2023/01/15 10:35:47;;;;;;;2.30;0.90;;;;;;;10.54;55.78;99886.06;4942256;28;124841;-69
2023/01/15 10:38:48;;;;;;;2.83;0.85;;;;;;;10.60;55.78;99890.97;4939704;28;115553;-69
2023/01/15 10:41:44;;;;;;;4.95;1.30;;;;;;;10.62;55.41;99883.78;4956089;28;114072;-69
2023/01/15 10:44:20;;;;;;;4.00;1.02;;;;;;;10.64;55.65;99879.28;4972723;28;124601;-69
2023/01/15 10:46:59;;;;;;;3.28;0.85;;;;;;;10.66;55.56;99885.31;4956248;28;124300;-70
2023/01/15 10:49:28;;;;;;;5.80;1.17;;;;;;;10.71;55.62;99882.38;4951707;28;113509;-70
2023/01/15 10:52:02;;;;;;;7.15;1.35;;;;;;;10.77;55.35;99878.50;4953425;28;114562;-69
2023/01/15 10:54:41;;;;;;;6.70;1.10;;;;;;;10.80;55.22;99843.91;4958467;28;124703;-69
2023/01/15 10:57:16;;;;;;;4.85;1.08;;;;;;;10.85;55.33;99878.88;4957778;28;123915;-69
2023/01/15 10:59:56;;;;;;;7.53;1.37;;;;;;;10.89;55.32;99891.00;4948507;28;114498;-69
2023/01/15 11:02:45;;;;;;;4.82;1.20;;;;;;;10.94;55.31;99888.91;4955220;28;114109;-69
2023/01/15 11:05:16;;;;;;;4.25;1.40;;;;;;;10.98;55.32;99906.34;4939945;28;124920;-69
2023/01/15 11:07:47;;;;;;;3.75;1.10;;;;;;;11.00;55.20;99891.19;4964484;28;124528;-69
2023/01/15 11:10:34;;;;;;;5.47;1.20;;;;;;;11.04;55.17;99879.47;4966360;28;114509;-69
2023/01/15 11:19:35;;;;;;;1.95;0.90;;;;;;;11.09;54.94;99903.88;4966664;28;125537;-69
2023/01/15 11:19:37;;;;;;;5.95;1.02;;;;;;;11.08;54.96;99898.66;4953513;28;123970;-69
2023/01/15 11:22:11;;;;;;;4.72;0.95;;;;;;;11.09;54.83;99893.28;4938259;28;114093;-70
2023/01/15 11:24:46;;;;;;;4.32;0.90;;;;;;;11.10;54.85;99879.06;4959396;28;114113;-70
2023/01/15 11:27:19;;;;;;;3.05;0.80;;;;;;;11.14;54.86;99884.19;4979905;28;123261;-70
2023/01/15 11:29:51;;;;;;;5.03;1.08;;;;;;;11.14;54.77;99890.31;4970006;28;123646;-70
2023/01/15 11:32:27;;;;;;;2.08;0.88;;;;;;;11.15;54.64;99870.84;4966891;28;115013;-69
2023/01/15 11:34:56;;;;;;;5.70;0.93;;;;;;;11.16;54.76;99871.69;4954765;28;115079;-69
2023/01/15 11:37:24;;;;;;;4.57;0.82;;;;;;;11.17;54.75;99878.66;4952303;28;124486;-69
2023/01/15 11:39:56;;;;;;;6.68;1.17;;;;;;;11.17;54.73;99883.97;4971256;28;124575;-70
2023/01/15 11:50:51;;;;;;;6.53;0.90;;;;;;;11.07;54.52;99884.53;4973638;28;123350;-69
2023/01/15 11:53:23;;;;;;;2.05;0.90;;;;;;;11.07;54.60;99884.53;4973158;28;114611;-70
2023/01/15 11:55:53;;;;;;;2.85;0.80;;;;;;;11.08;54.62;99875.66;4968176;28;113879;-70
2023/01/15 11:58:23;;;;;;;3.13;0.98;;;;;;;11.09;54.52;99882.69;4960093;28;123554;-70
2023/01/15 12:00:54;;;;;;;1.42;0.57;;;;;;;11.10;54.44;99894.97;4979319;28;122494;-70
2023/01/15 12:03:25;;;;;;;2.28;0.73;;;;;;;11.09;54.40;99890.63;4975437;28;114369;-70
2023/01/15 12:05:57;;;;;;;4.25;1.15;;;;;;;11.07;54.46;99884.53;4975857;28;113451;-70
2023/01/15 12:08:38;;;;;;;2.08;0.70;;;;;;;11.07;54.35;99884.53;4955838;28;122595;-70
2023/01/15 12:11:18;;;;;;;2.67;0.70;;;;;;;11.06;54.30;99877.56;4964617;28;124775;-70
2023/01/15 12:14:08;;;;;;;1.33;0.70;;;;;;;11.06;54.28;99888.16;4962188;28;114705;-70
2023/01/15 12:16:50;;;;;;;2.67;0.88;;;;;;;11.06;54.26;99879.38;4977430;28;112229;-71
2023/01/15 12:19:59;;;;;;;4.90;0.90;;;;;;;11.04;54.46;99895.34;4950530;28;124391;-71
2023/01/15 12:23:15;;;;;;;2.30;0.70;;;;;;;11.00;54.27;99885.91;4947900;28;123795;-70
2023/01/15 12:25:54;;;;;;;1.65;0.70;;;;;;;10.95;54.34;99874.72;4946751;28;115794;-70
2023/01/15 12:28:33;;;;;;;2.90;0.80;;;;;;;10.88;54.29;99890.13;4961770;28;115625;-70
2023/01/15 12:31:07;;;;;;;3.70;1.17;;;;;;;10.84;54.58;99874.53;4958330;28;124305;-71
2023/01/15 12:33:38;;;;;;;2.30;0.70;;;;;;;10.81;54.49;99877.38;4954921;28;124733;-69
2023/01/15 12:36:22;;;;;;;2.38;0.73;;;;;;;10.78;54.64;99867.81;4950986;28;114492;-70